createdAt,value
2022-08-24T00:01:32.034Z,40.78
2022-08-24T00:04:06.558Z,40.87
2022-08-24T00:06:40.254Z,41.17
2022-08-24T00:09:11.262Z,40.95
2022-08-24T00:11:39.919Z,40.93
2022-08-24T00:14:12.465Z,40.95
2022-08-24T00:16:42.779Z,41.00
2022-08-24T00:19:16.350Z,40.80
2022-08-24T00:21:55.306Z,40.81
2022-08-24T00:24:34.027Z,41.01
2022-08-24T00:27:04.781Z,40.64
2022-08-24T00:29:36.599Z,41.20
2022-08-24T00:32:09.239Z,41.03
2022-08-24T00:34:36.950Z,40.84
2022-08-24T00:37:05.008Z,40.90
2022-08-24T00:39:32.829Z,41.01
2022-08-24T00:42:03.097Z,40.98
2022-08-24T00:44:35.918Z,40.90
2022-08-24T00:47:16.765Z,40.88
2022-08-24T00:49:51.057Z,40.96
2022-08-24T00:52:25.856Z,40.95
2022-08-24T00:54:58.701Z,40.89
2022-08-24T00:57:37.016Z,41.00
2022-08-24T01:00:14.791Z,41.19
2022-08-24T01:02:51.412Z,41.19
2022-08-24T01:05:29.883Z,40.97
2022-08-24T01:08:06.654Z,41.02
2022-08-24T01:10:46.777Z,40.91
2022-08-24T01:13:24.411Z,41.10
2022-08-24T01:15:54.618Z,40.88
2022-08-24T01:18:46.867Z,40.90
2022-08-24T01:21:35.332Z,40.77
2022-08-24T01:24:14.194Z,40.63
2022-08-24T01:26:49.965Z,41.07
2022-08-24T01:29:27.717Z,40.54
2022-08-24T01:32:03.417Z,40.67
2022-08-24T01:34:36.133Z,40.79
2022-08-24T01:37:05.137Z,40.72
2022-08-24T01:39:43.421Z,40.70
2022-08-24T01:42:14.402Z,40.41
2022-08-24T01:44:51.066Z,40.52
2022-08-24T01:47:27.762Z,40.38
2022-08-24T01:50:06.417Z,40.65
2022-08-24T01:53:03.993Z,40.39
2022-08-24T01:55:34.929Z,40.49
2022-08-24T01:58:09.426Z,40.68
2022-08-24T02:00:43.493Z,40.62
2022-08-24T02:03:16.121Z,40.65
2022-08-24T02:05:49.630Z,41.03
2022-08-24T02:08:19.269Z,40.90
2022-08-24T02:10:56.719Z,40.84
2022-08-24T02:13:31.973Z,40.93
2022-08-24T02:16:05.744Z,40.94
2022-08-24T02:18:41.985Z,41.11
2022-08-24T02:21:16.939Z,40.96
2022-08-24T02:23:57.835Z,40.74
2022-08-24T02:26:31.776Z,40.65
2022-08-24T02:29:05.844Z,40.85
2022-08-24T02:31:37.232Z,41.05
2022-08-24T02:34:08.234Z,40.97
2022-08-24T02:36:38.939Z,40.95
2022-08-24T02:39:14.907Z,41.30
2022-08-24T02:41:49.404Z,41.26
2022-08-24T02:44:20.265Z,41.26
2022-08-24T02:46:48.988Z,41.17
2022-08-24T02:49:26.249Z,41.05
2022-08-24T02:51:59.960Z,41.25
2022-08-24T02:54:32.902Z,41.33
2022-08-24T02:57:03.351Z,41.16
2022-08-24T02:59:37.464Z,41.28
2022-08-24T03:02:09.876Z,41.31
2022-08-24T03:04:43.169Z,41.38
2022-08-24T03:07:23.312Z,41.41
2022-08-24T03:09:51.498Z,41.23
2022-08-24T03:12:21.642Z,41.29
2022-08-24T03:14:52.458Z,41.36
2022-08-24T03:17:24.070Z,41.24
2022-08-24T03:19:57.230Z,41.48
2022-08-24T03:22:25.101Z,41.45
2022-08-24T03:25:01.238Z,41.38
2022-08-24T03:27:35.067Z,41.35
2022-08-24T03:30:12.849Z,41.36
2022-08-24T03:32:46.336Z,41.47
2022-08-24T03:35:19.461Z,41.18
2022-08-24T03:37:53.371Z,41.53
2022-08-24T03:40:26.301Z,41.50
2022-08-24T03:43:00.627Z,41.21
2022-08-24T03:45:29.607Z,41.27
2022-08-24T03:48:05.418Z,41.55
2022-08-24T03:50:37.573Z,41.52
2022-08-24T03:53:08.471Z,41.52
2022-08-24T03:55:50.432Z,41.47
2022-08-24T03:58:24.780Z,41.62
2022-08-24T04:00:56.213Z,41.88
2022-08-24T04:03:28.270Z,41.65
2022-08-24T04:06:01.343Z,41.85
2022-08-24T04:08:32.789Z,41.60
2022-08-24T04:11:09.700Z,41.43
2022-08-24T04:13:41.486Z,41.45
2022-08-24T04:16:15.141Z,41.54
2022-08-24T04:18:49.254Z,41.95
2022-08-24T04:21:22.638Z,41.54
2022-08-24T04:23:57.640Z,41.56
2022-08-24T04:26:45.089Z,41.45
2022-08-24T04:29:26.180Z,41.37
2022-08-24T04:32:08.581Z,41.42
2022-08-24T04:34:39.691Z,41.52
2022-08-24T04:37:27.041Z,41.55
2022-08-24T04:40:32.413Z,41.61
2022-08-24T04:43:06.418Z,41.73
2022-08-24T04:45:51.658Z,41.07
2022-08-24T04:48:25.059Z,41.66
2022-08-24T04:50:55.656Z,41.53
2022-08-24T04:53:29.201Z,41.76
2022-08-24T04:56:01.918Z,41.31
2022-08-24T04:58:37.551Z,41.60
2022-08-24T05:01:18.002Z,41.62
2022-08-24T05:03:49.226Z,41.56
2022-08-24T05:06:23.110Z,41.53
2022-08-24T05:08:52.716Z,41.72
2022-08-24T05:11:23.137Z,41.63
2022-08-24T05:13:56.100Z,41.65
2022-08-24T05:16:30.529Z,41.66
2022-08-24T05:19:07.700Z,41.47
2022-08-24T05:21:42.907Z,41.72
2022-08-24T05:24:13.452Z,41.39
2022-08-24T05:26:45.589Z,41.26
2022-08-24T05:29:21.528Z,41.38
2022-08-24T05:31:54.246Z,41.42
2022-08-24T05:34:24.617Z,41.32
2022-08-24T05:36:55.859Z,41.09
2022-08-24T05:39:56.193Z,41.42
2022-08-24T05:42:30.449Z,40.96
2022-08-24T05:45:05.912Z,41.23
2022-08-24T05:47:36.763Z,40.96
2022-08-24T05:50:12.861Z,41.15
2022-08-24T05:52:42.818Z,41.17
2022-08-24T05:55:15.961Z,41.16
2022-08-24T05:57:53.810Z,41.08
2022-08-24T06:00:32.846Z,41.19
2022-08-24T06:03:14.565Z,41.26
2022-08-24T06:05:56.412Z,41.56
2022-08-24T06:08:30.637Z,41.85
2022-08-24T06:11:10.952Z,42.41
2022-08-24T06:13:53.713Z,42.27
2022-08-24T06:16:32.811Z,42.41
2022-08-24T06:19:14.281Z,42.07
2022-08-24T06:21:51.864Z,42.08
2022-08-24T06:24:44.622Z,41.54
2022-08-24T06:27:23.998Z,41.69
2022-08-24T06:30:03.847Z,41.57
2022-08-24T06:33:09.533Z,41.65
2022-08-24T06:35:49.662Z,41.68
2022-08-24T06:38:26.591Z,42.07
2022-08-24T06:41:06.056Z,42.11
2022-08-24T06:43:41.718Z,43.27
2022-08-24T06:46:31.998Z,42.91
2022-08-24T06:49:12.410Z,43.49
2022-08-24T06:51:50.739Z,43.50
2022-08-24T06:54:28.614Z,43.54
2022-08-24T06:57:04.004Z,44.00
2022-08-24T06:59:36.234Z,44.16
2022-08-24T07:02:24.828Z,43.82
2022-08-24T07:04:57.034Z,44.60
2022-08-24T07:07:48.785Z,44.08
2022-08-24T07:10:24.087Z,43.64
2022-08-24T07:13:06.866Z,42.75
2022-08-24T07:15:53.431Z,42.77
2022-08-24T07:18:29.213Z,42.51
2022-08-24T07:21:03.936Z,41.78
2022-08-24T07:23:46.447Z,41.49
2022-08-24T07:26:28.248Z,41.92
2022-08-24T07:29:06.756Z,41.83
2022-08-24T07:31:49.118Z,41.67
2022-08-24T07:34:44.212Z,42.22
2022-08-24T07:37:20.466Z,41.95
2022-08-24T07:39:53.292Z,41.34
2022-08-24T07:42:31.111Z,41.52
2022-08-24T07:45:10.236Z,41.48
2022-08-24T07:47:55.365Z,40.99
2022-08-24T07:50:50.154Z,40.94
2022-08-24T07:53:37.895Z,41.04
2022-08-24T07:56:22.851Z,41.01
2022-08-24T07:58:56.681Z,41.24
2022-08-24T08:01:36.593Z,41.06
2022-08-24T08:04:09.906Z,41.19
2022-08-24T08:06:46.117Z,40.92
2022-08-24T08:09:20.478Z,41.24
2022-08-24T08:11:52.839Z,41.50
2022-08-24T08:14:26.587Z,41.27
2022-08-24T08:16:55.233Z,41.27
2022-08-24T08:19:23.743Z,41.57
2022-08-24T08:22:12.077Z,41.89
2022-08-24T08:25:08.073Z,41.68
2022-08-24T08:30:22.468Z,41.49
2022-08-24T08:32:58.494Z,42.00
2022-08-24T08:35:36.483Z,41.52
2022-08-24T08:38:07.852Z,41.68
2022-08-24T08:40:58.286Z,42.02
2022-08-24T08:44:07.051Z,42.04
2022-08-24T08:47:00.609Z,41.84
2022-08-24T08:49:51.320Z,42.18
2022-08-24T08:52:43.294Z,41.68
2022-08-24T08:55:59.968Z,41.68
2022-08-24T08:58:59.557Z,41.97
2022-08-24T09:02:09.458Z,41.92
2022-08-24T09:05:13.809Z,42.03
2022-08-24T09:08:20.797Z,42.43
2022-08-24T09:11:10.431Z,42.66
2022-08-24T09:14:26.647Z,42.57
2022-08-24T09:17:12.956Z,42.42
2022-08-24T09:20:12.420Z,42.36
2022-08-24T09:23:05.884Z,41.88
2022-08-24T09:25:46.986Z,42.17
2022-08-24T09:28:26.778Z,42.72
2022-08-24T09:31:05.138Z,42.34
2022-08-24T09:33:44.362Z,42.78
2022-08-24T09:36:32.279Z,43.01
2022-08-24T09:39:39.428Z,42.75
2022-08-24T09:42:25.927Z,42.52
2022-08-24T09:45:26.744Z,42.82
2022-08-24T09:48:33.056Z,42.44
2022-08-24T09:51:22.654Z,42.54
2022-08-24T09:54:00.583Z,41.82
2022-08-24T09:57:12.201Z,41.42
2022-08-24T09:59:50.062Z,41.76
2022-08-24T10:02:46.406Z,42.11
2022-08-24T10:05:36.806Z,42.35
2022-08-24T10:08:17.316Z,41.97
2022-08-24T10:10:48.445Z,41.67
2022-08-24T10:13:38.248Z,41.68
2022-08-24T10:16:35.023Z,41.27
2022-08-24T10:20:00.430Z,41.10
2022-08-24T10:22:58.632Z,41.05
2022-08-24T10:25:38.254Z,40.57
2022-08-24T10:28:34.561Z,41.02
2022-08-24T10:31:13.358Z,41.31
2022-08-24T10:34:25.968Z,40.84
2022-08-24T10:37:06.004Z,41.22
2022-08-24T10:40:04.536Z,41.23
2022-08-24T10:43:26.186Z,40.92
2022-08-24T10:46:26.017Z,40.89
2022-08-24T10:49:34.049Z,40.85
2022-08-24T10:52:34.048Z,40.20
2022-08-24T10:55:25.058Z,40.27
2022-08-24T10:58:11.236Z,40.84
2022-08-24T11:00:45.228Z,40.97
2022-08-24T11:03:27.782Z,40.95
2022-08-24T11:06:00.257Z,41.71
2022-08-24T11:08:34.161Z,41.34
2022-08-24T11:11:08.120Z,41.00
2022-08-24T11:13:38.081Z,40.97
2022-08-24T11:16:12.005Z,41.13
2022-08-24T11:19:37.442Z,40.72
2022-08-24T11:22:27.639Z,40.76
2022-08-24T11:25:02.464Z,40.56
2022-08-24T11:27:48.570Z,40.27
2022-08-24T11:30:22.278Z,40.75
2022-08-24T11:33:11.882Z,41.04
2022-08-24T11:35:45.858Z,40.78
2022-08-24T11:38:27.522Z,41.21
2022-08-24T11:40:57.947Z,41.15
2022-08-24T11:43:40.397Z,40.97
2022-08-24T11:46:31.958Z,41.13
2022-08-24T11:49:08.844Z,41.49
2022-08-24T11:51:58.457Z,41.26
2022-08-24T11:54:38.442Z,40.82
2022-08-24T11:57:22.400Z,41.17
2022-08-24T12:00:01.695Z,41.16
2022-08-24T12:03:02.843Z,40.81
2022-08-24T12:06:05.637Z,41.33
2022-08-24T12:08:38.927Z,41.13
2022-08-24T12:11:07.604Z,41.02
2022-08-24T12:13:56.439Z,41.57
2022-08-24T12:16:56.472Z,41.46
2022-08-24T12:19:34.190Z,40.97
2022-08-24T12:22:09.643Z,40.86
2022-08-24T12:24:55.138Z,40.38
2022-08-24T12:27:32.192Z,40.14
2022-08-24T12:30:10.662Z,39.99
2022-08-24T12:33:04.904Z,39.86
2022-08-24T12:35:42.766Z,39.92
2022-08-24T12:38:16.199Z,39.09
2022-08-24T12:41:19.133Z,39.79
2022-08-24T12:44:12.067Z,40.47
2022-08-24T12:46:52.000Z,40.04
2022-08-24T12:49:50.037Z,39.50
2022-08-24T12:53:13.584Z,38.82
2022-08-24T12:56:07.235Z,39.15
2022-08-24T12:59:02.565Z,38.83
2022-08-24T13:01:50.430Z,39.45
2022-08-24T13:04:39.824Z,39.04
2022-08-24T13:07:18.070Z,39.07
2022-08-24T13:09:55.378Z,38.69
2022-08-24T13:13:18.807Z,38.76
2022-08-24T13:16:08.649Z,38.29
2022-08-24T13:19:08.156Z,38.24
2022-08-24T13:21:48.169Z,38.62
2022-08-24T13:24:36.136Z,38.24
2022-08-24T13:27:19.585Z,38.55
2022-08-24T13:30:10.249Z,38.64
2022-08-24T13:32:52.190Z,38.11
2022-08-24T13:36:00.692Z,38.16
2022-08-24T13:38:40.927Z,38.49
2022-08-24T13:41:26.978Z,37.93
2022-08-24T13:44:13.111Z,38.28
2022-08-24T13:46:48.870Z,38.75
2022-08-24T13:49:44.067Z,37.92
2022-08-24T13:52:37.519Z,38.13
2022-08-24T13:55:31.105Z,38.20
2022-08-24T13:58:11.289Z,37.70
2022-08-24T14:00:58.553Z,37.67
2022-08-24T14:03:56.603Z,38.08
2022-08-24T14:06:38.297Z,38.11
2022-08-24T14:09:39.389Z,38.08
2022-08-24T14:12:43.854Z,38.57
2022-08-24T14:16:28.766Z,38.39
2022-08-24T14:19:55.079Z,37.86
2022-08-24T14:22:44.430Z,37.61
2022-08-24T14:25:27.260Z,37.74
2022-08-24T14:28:06.570Z,38.00
2022-08-24T14:30:44.868Z,37.57
2022-08-24T14:33:31.086Z,37.40
2022-08-24T14:36:15.663Z,37.79
2022-08-24T14:39:20.979Z,38.49
2022-08-24T14:42:45.024Z,38.31
2022-08-24T14:45:42.184Z,38.29
2022-08-24T14:48:25.123Z,38.60
2022-08-24T14:51:08.480Z,38.41
2022-08-24T14:53:57.154Z,38.23
2022-08-24T14:57:02.902Z,38.64
2022-08-24T14:59:55.301Z,38.43
2022-08-24T15:02:44.979Z,38.84
2022-08-24T15:05:24.113Z,38.75
2022-08-24T15:08:00.255Z,39.09
2022-08-24T15:10:41.721Z,39.02
2022-08-24T15:13:38.966Z,39.43
2022-08-24T15:16:23.625Z,39.56
2022-08-24T15:19:05.847Z,39.12
2022-08-24T15:21:52.224Z,39.75
2022-08-24T15:24:45.428Z,38.89
2022-08-24T15:27:35.538Z,38.26
2022-08-24T15:30:20.670Z,38.66
2022-08-24T15:33:14.973Z,38.75
2022-08-24T15:35:52.022Z,38.29
2022-08-24T15:38:30.582Z,37.69
2022-08-24T15:41:13.187Z,38.53
2022-08-24T15:43:47.268Z,37.93
2022-08-24T15:46:24.389Z,38.54
2022-08-24T15:49:09.056Z,38.68
2022-08-24T15:51:56.072Z,38.57
2022-08-24T15:54:24.995Z,38.53
2022-08-24T15:57:07.631Z,39.08
2022-08-24T15:59:41.567Z,38.58
2022-08-24T16:02:29.319Z,38.63
2022-08-24T16:05:25.615Z,38.90
2022-08-24T16:08:11.839Z,39.28
2022-08-24T16:10:52.644Z,38.74
2022-08-24T16:13:31.151Z,39.17
2022-08-24T16:16:17.713Z,39.30
2022-08-24T16:18:53.247Z,39.16
2022-08-24T16:21:39.049Z,39.62
2022-08-24T16:24:29.014Z,40.00
2022-08-24T16:27:14.217Z,40.16
2022-08-24T16:29:45.093Z,39.93
2022-08-24T16:32:30.248Z,40.12
2022-08-24T16:35:08.644Z,40.17
2022-08-24T16:37:42.155Z,40.31
2022-08-24T16:40:14.340Z,40.52
2022-08-24T16:42:45.382Z,39.81
2022-08-24T16:45:18.475Z,39.51
2022-08-24T16:47:50.406Z,39.49
2022-08-24T16:50:27.333Z,39.10
2022-08-24T16:52:57.988Z,39.17
2022-08-24T16:55:29.148Z,39.08
2022-08-24T16:58:02.119Z,39.01
2022-08-24T17:00:30.492Z,38.88
2022-08-24T17:03:00.857Z,39.09
2022-08-24T17:05:31.547Z,39.16
2022-08-24T17:08:02.915Z,39.06
2022-08-24T17:10:37.953Z,38.96
2022-08-24T17:13:08.766Z,38.90
2022-08-24T17:15:36.520Z,38.93
2022-08-24T17:18:12.178Z,38.92
2022-08-24T17:20:42.641Z,38.99
2022-08-24T17:23:11.279Z,38.79
2022-08-24T17:25:42.380Z,39.01
2022-08-24T17:28:16.437Z,38.92
2022-08-24T17:30:45.306Z,39.02
2022-08-24T17:33:15.317Z,39.13
2022-08-24T17:35:43.083Z,38.94
2022-08-24T17:38:10.858Z,38.83
2022-08-24T17:40:41.496Z,39.05
2022-08-24T17:43:12.340Z,38.98
2022-08-24T17:45:50.570Z,39.13
2022-08-24T17:48:25.774Z,38.97
2022-08-24T17:50:54.259Z,38.68
2022-08-24T17:53:22.121Z,39.05
2022-08-24T17:55:49.831Z,39.16
2022-08-24T17:58:26.968Z,38.90
2022-08-24T18:00:54.800Z,38.91
2022-08-24T18:03:26.010Z,39.04
2022-08-24T18:05:56.536Z,39.06
2022-08-24T18:08:26.164Z,38.91
2022-08-24T18:10:56.470Z,39.13
2022-08-24T18:13:24.063Z,39.01
2022-08-24T18:15:57.514Z,39.11
2022-08-24T18:18:25.484Z,38.95
2022-08-24T18:21:01.873Z,39.03
2022-08-24T18:23:32.824Z,38.98
2022-08-24T18:26:08.396Z,39.15
2022-08-24T18:28:42.432Z,38.95
2022-08-24T18:31:10.458Z,39.04
2022-08-24T18:33:43.154Z,38.76
2022-08-24T18:36:15.193Z,39.09
2022-08-24T18:38:43.754Z,38.89
2022-08-24T18:41:16.207Z,38.97
2022-08-24T18:43:44.419Z,38.97
2022-08-24T18:46:17.936Z,38.97
2022-08-24T18:48:51.048Z,39.07
2022-08-24T18:51:20.358Z,38.91
2022-08-24T18:53:50.725Z,38.82
2022-08-24T18:56:22.197Z,38.90
2022-08-24T18:58:58.157Z,38.84
2022-08-24T19:01:50.305Z,38.92
2022-08-24T19:04:20.098Z,38.95
2022-08-24T19:06:53.875Z,39.19
2022-08-24T19:09:30.769Z,39.05
2022-08-24T19:12:02.478Z,39.07
2022-08-24T19:14:36.757Z,38.88
2022-08-24T19:17:09.103Z,39.23
2022-08-24T19:19:39.993Z,39.23
2022-08-24T19:22:10.557Z,38.83
2022-08-24T19:24:39.454Z,38.81
2022-08-24T19:27:10.518Z,38.71
2022-08-24T19:29:56.767Z,39.36
2022-08-24T19:32:29.735Z,38.99
2022-08-24T19:35:00.277Z,39.13
2022-08-24T19:37:30.793Z,38.96
2022-08-24T19:40:00.103Z,38.86
2022-08-24T19:42:28.840Z,38.98
2022-08-24T19:45:18.676Z,39.00
2022-08-24T19:47:46.907Z,39.14
2022-08-24T19:50:21.244Z,39.23
2022-08-24T19:52:52.093Z,39.21
2022-08-24T19:55:22.500Z,39.14
2022-08-24T19:58:05.765Z,39.16
2022-08-24T20:01:02.571Z,39.05
2022-08-24T20:03:35.464Z,38.88
2022-08-24T20:06:05.863Z,39.28
2022-08-24T20:08:33.581Z,39.11
2022-08-24T20:11:04.236Z,39.06
2022-08-24T20:13:31.834Z,39.33
2022-08-24T20:16:00.101Z,38.70
2022-08-24T20:18:34.153Z,39.11
2022-08-24T20:21:03.139Z,39.14
2022-08-24T20:23:36.453Z,39.12
2022-08-24T20:26:05.406Z,38.88
2022-08-24T20:28:42.765Z,39.05
2022-08-24T20:31:14.392Z,39.24
2022-08-24T20:33:48.769Z,39.04
2022-08-24T20:36:27.321Z,39.02
2022-08-24T20:38:57.879Z,38.96
2022-08-24T20:41:30.722Z,39.06
2022-08-24T20:44:02.225Z,39.18
2022-08-24T20:46:33.087Z,39.27
2022-08-24T20:49:01.637Z,39.02
2022-08-24T20:51:29.844Z,38.90
2022-08-24T20:53:59.984Z,39.08
2022-08-24T20:56:39.544Z,39.05
2022-08-24T20:59:09.924Z,38.84
2022-08-24T21:01:39.098Z,38.95
2022-08-24T21:04:07.262Z,38.97
2022-08-24T21:06:43.131Z,38.83
2022-08-24T21:09:16.874Z,39.00
2022-08-24T21:11:46.373Z,38.74
2022-08-24T21:14:19.433Z,38.88
2022-08-24T21:16:47.826Z,38.60
2022-08-24T21:19:17.687Z,38.84
2022-08-24T21:21:51.190Z,38.73
2022-08-24T21:24:18.588Z,38.73
2022-08-24T21:26:49.262Z,38.72
2022-08-24T21:29:16.952Z,38.88
2022-08-24T21:32:07.672Z,38.61
2022-08-24T21:34:41.775Z,38.73
2022-08-24T21:37:14.099Z,38.89
2022-08-24T21:39:47.015Z,38.53
2022-08-24T21:42:17.015Z,38.71
2022-08-24T21:44:47.877Z,38.50
2022-08-24T21:47:18.202Z,38.78
2022-08-24T21:49:45.771Z,38.71
2022-08-24T21:52:15.564Z,38.49
2022-08-24T21:54:47.950Z,38.54
2022-08-24T21:57:20.967Z,38.55
2022-08-24T21:59:51.732Z,38.53
2022-08-24T22:02:20.558Z,38.46
2022-08-24T22:04:55.990Z,39.00
2022-08-24T22:07:27.869Z,38.96
2022-08-24T22:09:59.091Z,38.79
2022-08-24T22:12:26.782Z,38.73
2022-08-24T22:14:55.233Z,38.43
2022-08-24T22:17:23.064Z,38.98
2022-08-24T22:19:50.772Z,38.83
2022-08-24T22:22:23.841Z,38.59
2022-08-24T22:24:51.767Z,38.75
2022-08-24T22:27:25.011Z,38.65
2022-08-24T22:29:53.063Z,38.86
2022-08-24T22:32:24.404Z,38.63
2022-08-24T22:34:55.735Z,39.23
2022-08-24T22:37:24.705Z,38.90
2022-08-24T22:39:55.059Z,39.08
2022-08-24T22:42:25.517Z,38.94
2022-08-24T22:44:53.223Z,38.93
2022-08-24T22:47:25.080Z,39.04
2022-08-24T22:49:55.378Z,38.80
2022-08-24T22:52:23.241Z,38.66
2022-08-24T22:55:05.716Z,38.86
2022-08-24T22:57:33.876Z,38.83
2022-08-24T23:00:10.103Z,38.95
2022-08-24T23:02:42.468Z,38.74
2022-08-24T23:05:13.459Z,38.81
2022-08-24T23:07:44.065Z,39.20
2022-08-24T23:10:15.001Z,38.90
2022-08-24T23:12:43.143Z,38.75
2022-08-24T23:15:14.783Z,38.85
2022-08-24T23:17:48.253Z,38.98
2022-08-24T23:20:17.142Z,38.99
2022-08-24T23:22:49.971Z,38.84
2022-08-24T23:25:22.591Z,38.86
2022-08-24T23:27:50.347Z,38.98
2022-08-24T23:30:26.794Z,38.80
2022-08-24T23:32:54.437Z,38.90
2022-08-24T23:35:21.984Z,38.82
2022-08-24T23:37:51.117Z,38.96
2022-08-24T23:40:21.803Z,38.97
2022-08-24T23:42:55.615Z,38.87
2022-08-24T23:45:28.037Z,38.79
2022-08-24T23:47:57.304Z,38.76
2022-08-24T23:50:26.094Z,38.67
2022-08-24T23:52:59.581Z,38.85
2022-08-24T23:55:30.125Z,38.86
2022-08-24T23:58:00.663Z,38.90
